Flight Track Log - Related Links

Times and Time Zones

All times are in EDT time to prevent confusion due to time zone crossing. See the KAP29 flight status page for this flight to view local times or setup timezone preferences in your user account.

Time Position Orientation Groundspeed Altitude Reporting Facility
EDT Latitude Longitude Course Direction KTS MPH feet Rate Location/Type
Sun 06:41:47 AM 44.3133 -74.2708 119° Southeast 156 180 6,000  Level Boston Center
Sun 06:42:47 AM 44.2914 -74.2150 119° Southeast 138 159 7,400 1,100 Climbing Boston Center
Sun 06:43:47 AM 44.2694 -74.1592 119° Southeast 146 168 8,200 700 Climbing Boston Center
Sun 06:44:47 AM 44.2472 -74.1008 118° Southeast 160 184 8,800 400 Climbing Boston Center
Sun 06:45:47 AM 44.2211 -74.0392 121° Southeast 171 197 9,000 100 Climbing Boston Center
Sun 06:46:47 AM 44.1928 -73.9631 117° Southeast 188 216 9,000  Level Boston Center
Sun 06:47:47 AM 44.1667 -73.8931 117° Southeast 200 230 9,000  Level Boston Center
Sun 06:48:47 AM 44.1425 -73.8231 116° Southeast 200 230 9,000  Level Boston Center
Sun 06:49:47 AM 44.1142 -73.7558 120° Southeast 205 236 9,000  Level Boston Center
Sun 06:50:47 AM 44.0858 -73.6917 122° Southeast 199 229 9,000  Level Boston Center
Sun 06:51:47 AM 44.0614 -73.6244 117° Southeast 199 229 9,000  Level Boston Center
Sun 06:52:47 AM 44.0350 -73.5633 121° Southeast 193 222 9,000  Level Boston Center
Sun 06:53:47 AM 44.0106 -73.4994 118° Southeast 188 216 9,000  Level Boston Center
Sun 06:54:47 AM 43.9861 -73.4383 119° Southeast 188 216 9,000  Level Boston Center
Sun 06:55:47 AM 43.9636 -73.3803 118° Southeast 188 216 9,000  Level Boston Center
Sun 06:56:47 AM 43.9392 -73.3194 119° Southeast 188 216 9,000  Level Boston Center
Sun 06:57:47 AM 43.9125 -73.2556 120° Southeast 188 216 9,000  Level Boston Center
Sun 06:58:47 AM 43.8858 -73.1892 119° Southeast 188 216 9,000  Level Boston Center
Sun 06:59:47 AM 43.8653 -73.1397 120° Southeast 188 216 9,000  Level Boston Center
Sun 07:00:47 AM 43.8344 -73.0617 119° Southeast 188 216 9,000  Level Boston Center
Sun 07:01:47 AM 43.8058 -72.9925 120° Southeast 188 216 9,000  Level Boston Center
Sun 07:02:47 AM 43.7789 -72.9261 119° Southeast 188 216 9,000  Level Boston Center
Sun 07:03:47 AM 43.7542 -72.8625 118° Southeast 188 216 9,000  Level Boston Center
Sun 07:04:47 AM 43.7253 -72.7964 121° Southeast 188 216 9,000  Level Boston Center
Sun 07:05:47 AM 43.7025 -72.7331 116° Southeast 188 216 9,000  Level Boston Center
Sun 07:06:47 AM 43.6778 -72.6783 122° Southeast 193 222 9,000 50 Level Boston Center
Sun 07:07:47 AM 43.6506 -72.6036 117° Southeast 193 222 9,100 50 Climbing Boston Center
Sun 07:08:47 AM 43.6236 -72.5375 119° Southeast 193 222 9,100  Level Boston Center
Sun 07:09:47 AM 43.5967 -72.4744 121° Southeast 188 216 9,100  Level Boston Center
Sun 07:10:47 AM 43.5694 -72.4114 121° Southeast 188 216 9,100  Level Boston Center
Sun 07:11:47 AM 43.5444 -72.3483 119° Southeast 188 216 9,100  Level Boston Center
Sun 07:12:47 AM 43.5172 -72.2825 120° Southeast 188 216 9,100  Level Boston Center
Sun 07:13:47 AM 43.4903 -72.2169 120° Southeast 193 222 9,100  Level Boston Center
Sun 07:14:47 AM 43.4628 -72.1569 122° Southeast 188 216 9,100  Level Boston Center
Sun 07:15:47 AM 43.4253 -72.1056 135° Southeast 188 216 9,100 -50 Level Boston Center
Sun 07:16:47 AM 43.3917 -72.0572 134° Southeast 193 222 9,000 -50 Descending Boston Center
Sun 07:17:47 AM 43.3542 -72.0003 132° Southeast 193 222 9,000  Level Boston Center
Sun 07:18:47 AM 43.3225 -71.9492 130° Southeast 193 222 9,000  Level Boston Center
Sun 07:19:47 AM 43.2847 -71.8925 132° Southeast 188 216 9,000 -100 Level Boston Center
Sun 07:20:47 AM 43.2533 -71.8442 132° Southeast 188 216 8,800 -300 Descending Boston Center
Sun 07:21:47 AM 43.2114 -71.7878 136° Southeast 188 216 8,400 -400 Descending Boston Center
Sun 07:22:47 AM 43.1756 -71.7342 132° Southeast 198 228 8,000 -400 Descending Boston Center
Sun 07:23:47 AM 43.1356 -71.6747 133° Southeast 198 228 7,600 -450 Descending Boston Center
Sun 07:24:47 AM 43.1039 -71.6267 132° Southeast 198 228 7,100 -350 Descending Boston Center
Sun 07:25:47 AM 43.0639 -71.5678 133° Southeast 198 228 6,900 -100 Descending Boston Center
Sun 07:26:47 AM 43.0344 -71.5225 132° Southeast 193 222 6,900 -152 Level Boston Center
Sun 07:29:04 AM 42.9500 -71.4000 133° Southeast 187 215 6,400 -244 Descending KA90
Sun 07:30:04 AM 42.9167 -71.3500 132° Southeast 187 215 6,100 -150 Descending KA90
Sun 07:31:04 AM 42.8833 -71.3000 132° Southeast 179 206 6,100  Level KA90
Sun 07:31:58 AM 42.8500 -71.2833 160° South 169 194 6,100  Level KA90
Sun 07:32:58 AM 42.8000 -71.2500 154° Southeast 165 190 6,100  Level KA90
Sun 07:33:58 AM 42.7500 -71.2333 166° South 165 190 6,100 -95 Level KA90
Sun 07:35:04 AM 42.7000 -71.2000 154° Southeast 167 192 5,900 -250 Descending KA90
Sun 07:35:58 AM 42.6667 -71.1833 160° South 173 199 5,600 -450 Descending KA90
Sun 07:37:04 AM 42.6167 -71.1500 154° Southeast 184 212 5,000 -526 Descending KA90
Sun 07:37:52 AM 42.5833 -71.1167 144° Southeast 183 211 4,600 -421 Descending KA90
Sun 07:38:58 AM 42.5333 -71.0833 154° Southeast 184 212 4,200 -524 Descending KA90
Sun 07:39:58 AM 42.5000 -71.0500 144° Southeast 185 213 3,500 -750 Descending KA90
Sun 07:40:58 AM 42.4500 -71.0000 144° Southeast 182 209 2,700 -1,150 Descending KA90
Sun 07:41:58 AM 42.4000 -70.9833 166° South 156 180 1,200 -1,500 Descending KA90
Sun 07:43:00 AM 42.3538 -70.9987 194° South  Level FlightAware Approximate
Sun 07:50:00 AM 42.3500 -71.0000 172° South  Level FlightAware Approximate
Sun 07:51:00 AM 42.3630 -71.0064 172° South  Level Estimated

Login

Don't have an account? Register now (free) for customized features, flight alerts, and more!